Time;durP1;ratioP1;P1;durP2;ratioP2;P2;SDS_P1;SDS_P2;PMS_P1;PMS_P2;Temp;Humidity;BMP_temperature;BMP_pressure;BME280_temperature;BME280_humidity;BME280_pressure;Samples;Min_cycle;Max_cycle;Signal;HPM_P1;HPM_P2
2022/06/28 00:00:27;;;;;;;17.70;12.13;;;13.30;99.90;;;;;;5146389;27;20096;-60
2022/06/28 00:02:53;;;;;;;18.35;13.48;;;13.30;99.90;;;;;;5149214;27;20518;-60
2022/06/28 00:05:18;;;;;;;17.92;12.45;;;13.20;99.90;;;;;;5146105;27;20042;-60
2022/06/28 00:07:44;;;;;;;16.08;12.77;;;13.20;99.90;;;;;;5153460;27;20543;-60
2022/06/28 00:10:12;;;;;;;19.10;13.15;;;13.20;99.90;;;;;;5144995;27;20068;-60
2022/06/28 00:12:39;;;;;;;19.08;12.95;;;13.10;99.90;;;;;;5146670;27;20046;-60
2022/06/28 00:17:51;;;;;;;19.38;13.82;;;13.10;99.90;;;;;;5146401;27;20050;-59
2022/06/28 00:20:16;;;;;;;19.10;13.13;;;13.10;99.90;;;;;;5131471;27;20047;-59
2022/06/28 00:22:42;;;;;;;18.90;13.13;;;13.10;99.90;;;;;;5153086;27;20051;-60
2022/06/28 00:25:08;;;;;;;17.13;12.45;;;13.10;99.90;;;;;;5151394;27;20038;-60
2022/06/28 00:27:34;;;;;;;19.77;13.20;;;13.00;99.90;;;;;;5149154;27;20130;-60
2022/06/28 00:30:00;;;;;;;20.40;13.38;;;13.00;99.90;;;;;;5148428;27;20121;-60
2022/06/28 00:32:26;;;;;;;21.38;13.38;;;13.00;99.90;;;;;;5151297;27;20034;-59
2022/06/28 00:34:51;;;;;;;17.98;13.30;;;12.90;99.90;;;;;;5148554;27;20041;-61
2022/06/28 00:37:17;;;;;;;21.10;14.32;;;12.90;99.90;;;;;;5149866;27;20634;-59
2022/06/28 00:39:43;;;;;;;19.73;13.90;;;12.90;99.90;;;;;;5150272;27;20041;-60
2022/06/28 00:42:09;;;;;;;19.65;14.63;;;12.90;99.90;;;;;;5147186;27;20078;-59
2022/06/28 00:44:36;;;;;;;19.40;14.18;;;12.80;99.90;;;;;;5139796;27;20050;-60
2022/06/28 00:47:03;;;;;;;21.30;14.13;;;12.80;99.90;;;;;;5148504;27;20027;-60
2022/06/28 00:49:29;;;;;;;23.25;14.15;;;12.80;99.90;;;;;;5149136;27;20422;-60
2022/06/28 00:51:58;;;;;;;23.25;14.52;;;12.80;99.90;;;;;;5152444;27;20043;-60
2022/06/28 00:54:25;;;;;;;21.23;14.95;;;12.90;99.90;;;;;;5152123;27;20105;-60
2022/06/28 00:56:51;;;;;;;19.15;14.52;;;12.80;99.90;;;;;;5151613;27;20053;-59
2022/06/28 00:59:16;;;;;;;23.02;15.07;;;12.70;99.90;;;;;;5148096;27;20030;-60
2022/06/28 01:01:42;;;;;;;18.67;13.88;;;12.70;99.90;;;;;;5148210;27;20035;-59
2022/06/28 01:04:07;;;;;;;22.92;15.10;;;12.70;99.90;;;;;;5146956;27;20493;-59
2022/06/28 01:06:33;;;;;;;19.90;14.15;;;12.70;99.90;;;;;;5150433;27;20189;-59
2022/06/28 01:08:59;;;;;;;18.90;13.85;;;12.70;99.90;;;;;;5150405;27;20038;-60
2022/06/28 01:11:28;;;;;;;17.05;13.43;;;12.70;99.90;;;;;;5144189;27;20118;-60
2022/06/28 01:14:08;;;;;;;20.75;15.02;;;12.70;99.90;;;;;;5128724;27;20038;-60
2022/06/28 01:16:35;;;;;;;;;;;12.70;99.90;;;;;;5126734;27;20031;-60
2022/06/28 01:19:00;;;;;;;20.83;14.02;;;12.70;99.90;;;;;;5148112;27;19967;-61
2022/06/28 01:21:29;;;;;;;18.20;13.52;;;12.60;99.90;;;;;;5151744;27;20038;-59
2022/06/28 01:23:56;;;;;;;19.05;14.57;;;12.70;99.90;;;;;;5147183;27;20035;-60
2022/06/28 01:26:23;;;;;;;19.48;13.80;;;12.60;99.90;;;;;;5149297;27;20031;-60
2022/06/28 01:28:50;;;;;;;22.23;14.23;;;12.60;99.90;;;;;;5145642;27;20058;-60
2022/06/28 01:31:20;;;;;;;19.98;14.30;;;12.70;99.90;;;;;;5144671;27;20039;-60
2022/06/28 01:33:46;;;;;;;21.23;13.60;;;12.60;99.90;;;;;;5145957;27;20034;-60
2022/06/28 01:36:12;;;;;;;20.98;13.40;;;12.60;99.90;;;;;;5147411;27;20042;-60
2022/06/28 01:38:39;;;;;;;21.55;13.13;;;12.60;99.90;;;;;;5152272;27;20039;-60
2022/06/28 01:41:06;;;;;;;18.45;13.73;;;12.60;99.90;;;;;;5147918;27;20045;-59
2022/06/28 01:43:32;;;;;;;19.35;13.43;;;12.60;99.90;;;;;;5142436;27;20046;-60
2022/06/28 01:45:59;;;;;;;20.52;13.75;;;12.60;99.90;;;;;;5116642;27;20035;-59
2022/06/28 01:48:25;;;;;;;18.33;13.43;;;12.60;99.90;;;;;;5146594;27;20163;-60
2022/06/28 01:50:54;;;;;;;18.35;13.57;;;12.60;99.90;;;;;;5149171;27;20687;-59
2022/06/28 01:53:21;;;;;;;21.50;14.48;;;12.60;99.90;;;;;;5131656;27;20550;-59
2022/06/28 01:55:47;;;;;;;20.83;14.05;;;12.50;99.90;;;;;;5147979;27;20046;-59
2022/06/28 01:58:13;;;;;;;19.30;13.63;;;12.50;99.90;;;;;;5150516;27;20045;-60
2022/06/28 02:00:39;;;;;;;18.42;12.95;;;12.50;99.90;;;;;;5144539;27;20035;-59
2022/06/28 02:03:05;;;;;;;17.85;13.65;;;12.40;99.90;;;;;;5148376;27;20065;-61
2022/06/28 02:05:31;;;;;;;20.63;14.88;;;12.40;99.90;;;;;;5142253;27;20034;-59
2022/06/28 02:07:58;;;;;;;21.45;13.82;;;12.30;99.90;;;;;;5147597;27;20459;-60
2022/06/28 02:10:24;;;;;;;20.77;14.80;;;12.30;99.90;;;;;;5146883;27;20379;-59
2022/06/28 02:12:50;;;;;;;24.95;14.75;;;12.20;99.90;;;;;;5146828;27;20034;-59
2022/06/28 02:15:15;;;;;;;19.15;13.93;;;12.20;99.90;;;;;;5143206;27;20034;-60
2022/06/28 02:17:42;;;;;;;20.70;13.93;;;12.20;99.90;;;;;;5147328;27;20155;-59
2022/06/28 02:20:09;;;;;;;20.50;14.10;;;12.20;99.90;;;;;;5145908;27;20046;-60
2022/06/28 02:22:35;;;;;;;19.52;14.80;;;12.20;99.90;;;;;;5146713;27;20042;-60
2022/06/28 02:25:00;;;;;;;19.55;14.43;;;12.30;99.90;;;;;;5146294;27;20034;-60
2022/06/28 02:27:26;;;;;;;16.83;14.40;;;12.20;99.90;;;;;;5149759;27;20039;-59
2022/06/28 02:29:52;;;;;;;21.90;14.73;;;12.10;99.90;;;;;;5129183;27;20255;-60
2022/06/28 02:32:18;;;;;;;19.25;14.43;;;12.20;99.90;;;;;;5146941;27;20057;-60
2022/06/28 02:40:22;;;;;;;20.77;14.38;;;12.30;99.90;;;;;;5149160;27;20165;-60
2022/06/28 02:42:52;;;;;;;23.13;15.55;;;12.30;99.90;;;;;;5147108;27;20031;-59
2022/06/28 02:45:19;;;;;;;19.38;14.30;;;12.20;99.90;;;;;;5139065;27;20035;-59
2022/06/28 02:47:44;;;;;;;23.13;14.88;;;12.20;99.90;;;;;;5139559;27;20138;-60
2022/06/28 02:50:10;;;;;;;18.98;14.27;;;12.10;99.90;;;;;;5138469;27;20538;-59
2022/06/28 02:52:36;;;;;;;19.48;12.93;;;12.10;99.90;;;;;;5148132;27;20031;-59
2022/06/28 02:55:02;;;;;;;20.60;14.18;;;12.10;99.90;;;;;;5146984;27;20049;-59
2022/06/28 02:57:28;;;;;;;22.30;15.02;;;12.10;99.90;;;;;;5150937;27;20075;-60
2022/06/28 02:59:54;;;;;;;21.02;14.27;;;12.10;99.90;;;;;;5129892;27;20038;-59
2022/06/28 03:02:19;;;;;;;17.20;12.55;;;12.10;99.90;;;;;;5145352;27;20049;-60
2022/06/28 03:04:45;;;;;;;20.10;14.40;;;12.10;99.90;;;;;;5147768;27;20054;-60
2022/06/28 03:07:10;;;;;;;20.30;13.93;;;12.10;99.90;;;;;;5125593;27;20039;-59
2022/06/28 03:09:37;;;;;;;19.05;13.00;;;12.10;99.90;;;;;;5146536;27;20043;-59
2022/06/28 03:12:05;;;;;;;19.38;14.30;;;12.10;99.90;;;;;;5118604;27;20091;-59
2022/06/28 03:14:31;;;;;;;23.77;15.43;;;12.00;99.90;;;;;;5144614;27;20040;-59
2022/06/28 03:16:57;;;;;;;23.48;15.38;;;12.00;99.90;;;;;;5153044;27;20121;-59
2022/06/28 03:19:22;;;;;;;21.35;15.48;;;12.00;99.90;;;;;;5147831;27;20035;-60
2022/06/28 03:21:48;;;;;;;20.40;15.00;;;12.00;99.90;;;;;;5154987;27;20039;-59
2022/06/28 03:24:13;;;;;;;20.80;14.13;;;12.00;99.90;;;;;;5148334;27;20065;-60
2022/06/28 03:26:39;;;;;;;21.27;15.07;;;12.00;99.90;;;;;;5152841;27;20043;-59
2022/06/28 03:29:05;;;;;;;24.13;14.77;;;12.00;99.90;;;;;;5151518;27;20375;-59
2022/06/28 03:31:31;;;;;;;22.83;14.85;;;12.00;99.90;;;;;;5149680;27;20065;-60
2022/06/28 03:33:57;;;;;;;21.05;14.73;;;12.00;99.90;;;;;;5153120;27;20046;-60
2022/06/28 03:36:22;;;;;;;22.70;15.98;;;11.90;99.90;;;;;;5151940;27;20038;-60
2022/06/28 03:38:48;;;;;;;22.95;15.65;;;11.90;99.90;;;;;;5150999;27;20046;-60
2022/06/28 03:41:22;;;;;;;22.10;15.75;;;11.90;99.90;;;;;;5152587;27;20054;-59
2022/06/28 03:43:49;;;;;;;22.83;14.88;;;11.90;99.90;;;;;;5147749;27;20049;-60
2022/06/28 03:46:14;;;;;;;21.60;15.00;;;11.90;99.90;;;;;;5149439;27;20043;-59
2022/06/28 03:48:40;;;;;;;21.98;16.00;;;11.90;99.90;;;;;;5151831;27;20087;-60
2022/06/28 03:51:05;;;;;;;19.55;14.57;;;12.00;99.90;;;;;;5152400;27;20050;-59
2022/06/28 03:53:31;;;;;;;25.38;15.75;;;11.90;99.90;;;;;;5151515;27;20043;-60
2022/06/28 03:55:56;;;;;;;23.27;15.80;;;11.90;99.90;;;;;;5148592;27;20118;-60
2022/06/28 03:58:22;;;;;;;21.50;15.30;;;11.90;99.90;;;;;;5151879;27;20037;-60
2022/06/28 04:00:48;;;;;;;22.77;15.43;;;11.90;99.90;;;;;;5149724;27;20034;-59
2022/06/28 04:03:13;;;;;;;20.33;13.90;;;12.00;99.90;;;;;;5149648;27;20047;-60
2022/06/28 04:05:40;;;;;;;21.13;15.25;;;11.90;99.90;;;;;;5149952;27;20050;-60
2022/06/28 04:08:08;;;;;;;20.20;14.07;;;11.90;99.90;;;;;;5147294;27;20454;-59
2022/06/28 04:10:34;;;;;;;20.77;13.95;;;11.90;99.90;;;;;;5151616;27;20065;-60
2022/06/28 04:12:59;;;;;;;19.10;13.32;;;11.80;99.90;;;;;;5147519;27;20066;-59
2022/06/28 04:15:25;;;;;;;21.20;13.73;;;11.80;99.90;;;;;;5145689;27;20027;-60
2022/06/28 04:17:50;;;;;;;20.42;13.30;;;11.90;99.90;;;;;;5149348;27;20478;-60
2022/06/28 04:20:16;;;;;;;21.05;14.23;;;11.90;99.90;;;;;;5147006;27;20043;-60
2022/06/28 04:22:41;;;;;;;22.27;14.05;;;12.00;99.90;;;;;;5151895;27;20394;-59
2022/06/28 04:25:07;;;;;;;21.67;14.82;;;12.00;99.90;;;;;;5143893;27;20039;-59
2022/06/28 04:27:33;;;;;;;22.23;14.90;;;12.00;99.90;;;;;;5140886;27;20053;-61
2022/06/28 04:29:59;;;;;;;20.95;14.57;;;12.10;99.90;;;;;;5130387;27;20202;-59
2022/06/28 04:32:26;;;;;;;21.98;14.80;;;12.20;99.90;;;;;;5130443;27;20030;-60
2022/06/28 04:34:51;;;;;;;25.80;15.23;;;12.30;99.90;;;;;;5144893;27;20039;-60
2022/06/28 04:37:17;;;;;;;20.25;14.65;;;12.30;99.90;;;;;;5149718;27;20100;-60
2022/06/28 04:39:42;;;;;;;19.60;14.57;;;12.30;99.90;;;;;;5152843;27;20108;-59
2022/06/28 04:42:08;;;;;;;21.42;14.95;;;12.40;99.90;;;;;;5148261;27;20072;-59
2022/06/28 04:44:33;;;;;;;19.95;14.48;;;12.40;99.90;;;;;;5140300;27;20486;-59
2022/06/28 04:47:00;;;;;;;21.40;14.18;;;12.50;99.90;;;;;;5147087;27;20460;-59
2022/06/28 04:49:26;;;;;;;23.52;15.15;;;12.60;99.90;;;;;;5150064;27;20447;-59
2022/06/28 04:51:51;;;;;;;23.17;14.35;;;12.70;99.90;;;;;;5149865;27;20068;-59
2022/06/28 04:54:17;;;;;;;23.50;14.38;;;12.80;99.90;;;;;;5148200;27;20054;-58
2022/06/28 04:56:42;;;;;;;20.83;15.18;;;12.90;99.90;;;;;;5151866;27;20078;-59
2022/06/28 04:59:08;;;;;;;19.98;14.23;;;13.00;99.90;;;;;;5137192;27;20031;-60
2022/06/28 05:01:34;;;;;;;19.13;13.93;;;13.00;99.90;;;;;;5144568;27;20049;-60
2022/06/28 05:03:59;;;;;;;20.33;13.90;;;13.10;99.90;;;;;;5144482;27;20145;-59
2022/06/28 05:06:25;;;;;;;23.83;15.23;;;13.20;99.90;;;;;;5147937;27;20048;-59
2022/06/28 05:08:51;;;;;;;20.15;14.38;;;13.30;99.90;;;;;;5148193;27;20092;-59
2022/06/28 05:11:16;;;;;;;19.42;14.05;;;13.40;99.90;;;;;;5140769;27;20082;-58
2022/06/28 05:13:42;;;;;;;20.17;14.48;;;13.50;99.90;;;;;;5147556;27;20070;-60
2022/06/28 05:16:07;;;;;;;20.98;15.00;;;13.60;99.90;;;;;;5146200;27;20383;-60
2022/06/28 05:18:33;;;;;;;21.65;14.65;;;13.70;99.90;;;;;;5128833;27;20107;-60
2022/06/28 05:20:59;;;;;;;19.05;13.63;;;13.80;99.90;;;;;;5149185;27;20086;-59
2022/06/28 05:23:25;;;;;;;17.83;14.43;;;14.00;99.90;;;;;;5150745;27;20050;-59
2022/06/28 05:25:51;;;;;;;19.02;14.13;;;14.10;99.90;;;;;;5148812;27;20136;-59
2022/06/28 05:28:16;;;;;;;20.83;14.43;;;14.20;99.90;;;;;;5131462;27;20046;-59
2022/06/28 05:30:42;;;;;;;18.38;13.35;;;14.30;99.90;;;;;;5146470;27;20030;-61
2022/06/28 05:33:07;;;;;;;18.00;12.68;;;14.40;99.90;;;;;;5140681;27;20429;-60
2022/06/28 05:35:33;;;;;;;15.80;12.52;;;14.50;99.90;;;;;;5146029;27;20043;-58
2022/06/28 05:38:00;;;;;;;19.13;13.43;;;14.40;99.90;;;;;;5147888;27;20034;-60
2022/06/28 05:40:26;;;;;;;17.17;12.80;;;14.50;99.90;;;;;;5148078;27;20042;-60
2022/06/28 05:42:51;;;;;;;15.77;11.80;;;14.50;99.90;;;;;;5148527;27;20022;-59
2022/06/28 05:45:17;;;;;;;17.70;12.68;;;14.70;99.90;;;;;;5141995;27;20548;-60
2022/06/28 05:47:43;;;;;;;17.08;11.90;;;14.80;99.90;;;;;;5141767;27;20031;-61
2022/06/28 05:50:08;;;;;;;18.00;11.77;;;14.90;99.90;;;;;;5143938;27;21051;-60
2022/06/28 05:52:34;;;;;;;18.88;11.65;;;15.10;99.90;;;;;;5154069;27;20125;-61
2022/06/28 05:54:59;;;;;;;13.43;10.88;;;15.20;99.90;;;;;;5148054;27;20055;-61
2022/06/28 05:57:25;;;;;;;14.98;11.50;;;15.30;99.90;;;;;;5151267;27;20065;-60
2022/06/28 05:59:50;;;;;;;13.02;10.55;;;15.40;99.90;;;;;;5142511;27;20038;-60
2022/06/28 06:02:16;;;;;;;14.52;10.93;;;15.50;99.90;;;;;;5144254;27;20038;-60
2022/06/28 06:04:42;;;;;;;17.90;10.57;;;15.60;99.90;;;;;;5142237;27;20467;-61
2022/06/28 06:07:07;;;;;;;12.95;10.00;;;15.80;99.90;;;;;;5146827;27;20068;-60
2022/06/28 06:09:33;;;;;;;11.25;9.23;;;16.00;99.90;;;;;;5151261;27;20529;-61
2022/06/28 06:12:04;;;;;;;15.57;10.38;;;16.10;99.90;;;;;;5156218;27;20026;-61
2022/06/28 06:14:33;;;;;;;12.90;9.00;;;16.20;99.90;;;;;;5129584;27;20114;-59
2022/06/28 06:16:58;;;;;;;13.63;8.68;;;16.10;99.90;;;;;;5132457;27;20121;-61
2022/06/28 06:19:24;;;;;;;13.75;8.98;;;16.30;99.90;;;;;;5148764;27;20065;-61
2022/06/28 06:21:50;;;;;;;10.20;7.80;;;16.50;99.90;;;;;;5144938;27;20463;-60
2022/06/28 06:24:15;;;;;;;11.82;7.95;;;16.60;99.90;;;;;;5140666;27;20130;-61
2022/06/28 06:26:41;;;;;;;11.63;7.47;;;16.70;99.90;;;;;;5142463;27;20035;-60
2022/06/28 06:29:07;;;;;;;11.35;7.60;;;16.80;99.90;;;;;;5139448;27;20034;-61
2022/06/28 06:31:33;;;;;;;9.95;6.68;;;17.00;99.90;;;;;;5123629;27;20039;-61
2022/06/28 06:33:58;;;;;;;13.45;6.70;;;17.00;99.90;;;;;;5124787;27;20417;-61
2022/06/28 06:36:25;;;;;;;11.18;7.25;;;17.20;99.90;;;;;;5149312;27;20371;-60
2022/06/28 06:38:50;;;;;;;11.73;6.25;;;17.40;99.90;;;;;;5119498;27;20118;-62
2022/06/28 06:41:16;;;;;;;8.25;5.30;;;17.60;99.90;;;;;;5125090;27;20408;-62
2022/06/28 06:43:42;;;;;;;7.55;5.63;;;17.50;99.90;;;;;;5151254;27;20030;-62
2022/06/28 06:46:08;;;;;;;10.07;5.28;;;17.80;99.90;;;;;;5112277;27;20050;-61
2022/06/28 06:48:33;;;;;;;7.22;5.15;;;18.00;99.90;;;;;;5146669;27;20034;-61
2022/06/28 06:50:59;;;;;;;9.02;5.35;;;18.10;99.90;;;;;;5123157;27;20377;-61
2022/06/28 06:53:25;;;;;;;8.02;5.00;;;18.30;99.90;;;;;;5146082;27;20047;-60
2022/06/28 06:55:50;;;;;;;9.70;6.00;;;18.20;99.90;;;;;;5149578;27;20034;-62
2022/06/28 06:58:16;;;;;;;8.13;5.30;;;18.30;99.90;;;;;;5128089;27;20053;-61
2022/06/28 07:00:41;;;;;;;6.50;4.60;;;18.30;99.90;;;;;;5142725;27;20035;-61
2022/06/28 07:03:08;;;;;;;9.38;5.10;;;18.50;99.90;;;;;;5141980;27;20099;-62
2022/06/28 07:05:33;;;;;;;8.07;4.13;;;18.60;99.90;;;;;;5146635;27;20429;-62
2022/06/28 07:07:59;;;;;;;8.38;5.03;;;18.80;99.90;;;;;;5147553;27;20058;-61
2022/06/28 07:10:24;;;;;;;8.10;4.70;;;18.70;99.90;;;;;;5127645;27;20030;-61
2022/06/28 07:12:50;;;;;;;9.93;5.10;;;19.30;99.90;;;;;;5155104;27;20069;-61
2022/06/28 07:15:15;;;;;;;6.70;4.93;;;19.20;99.90;;;;;;5148675;27;20131;-61
2022/06/28 07:17:42;;;;;;;8.90;5.07;;;19.70;99.90;;;;;;5151253;27;20118;-60
2022/06/28 07:20:08;;;;;;;10.07;5.47;;;20.00;99.90;;;;;;5145415;27;20562;-62
2022/06/28 07:22:33;;;;;;;9.30;4.70;;;19.40;99.90;;;;;;5129515;27;20529;-62
2022/06/28 07:25:00;;;;;;;9.73;5.10;;;19.60;99.90;;;;;;5148919;27;20035;-61
2022/06/28 07:27:26;;;;;;;9.18;5.15;;;19.90;99.90;;;;;;5152689;27;20042;-62
2022/06/28 07:29:52;;;;;;;10.52;5.43;;;20.20;99.90;;;;;;5148041;27;20042;-61
2022/06/28 07:32:18;;;;;;;10.75;5.05;;;20.50;99.90;;;;;;5142982;27;20051;-61
2022/06/28 07:34:44;;;;;;;7.05;4.00;;;20.20;98.50;;;;;;5150229;27;20519;-62
2022/06/28 07:37:10;;;;;;;8.52;4.20;;;20.50;99.90;;;;;;5150742;27;20042;-61
2022/06/28 07:39:36;;;;;;;9.73;4.07;;;20.90;99.90;;;;;;5149217;27;20175;-63
2022/06/28 07:42:02;;;;;;;7.43;3.75;;;20.90;98.60;;;;;;5148991;27;20034;-62
2022/06/28 07:44:28;;;;;;;6.93;3.95;;;20.90;97.70;;;;;;5145145;27;20038;-62
2022/06/28 07:46:53;;;;;;;8.85;3.75;;;21.00;98.00;;;;;;5132739;27;20832;-62
2022/06/28 07:49:19;;;;;;;8.00;3.67;;;20.70;96.90;;;;;;5149295;27;20026;-62
2022/06/28 07:52:45;;;;;;;7.68;4.25;;;20.20;97.10;;;;;;5150008;27;20034;-62
2022/06/28 07:54:39;;;;;;;9.68;3.92;;;20.10;98.10;;;;;;5120393;27;20058;-62
2022/06/28 07:57:05;;;;;;;7.10;3.35;;;20.40;97.60;;;;;;5145811;27;20423;-62
2022/06/28 07:59:31;;;;;;;9.00;4.15;;;20.60;97.70;;;;;;5144513;27;20031;-61
2022/06/28 08:01:56;;;;;;;7.20;2.95;;;20.90;95.50;;;;;;5126476;27;20042;-62
2022/06/28 08:04:22;;;;;;;9.45;3.95;;;21.30;96.20;;;;;;5133992;27;20519;-64
2022/06/28 08:06:47;;;;;;;9.18;2.97;;;21.90;94.60;;;;;;5153913;27;20034;-62
2022/06/28 08:09:13;;;;;;;6.65;2.97;;;21.70;94.40;;;;;;5153611;27;20485;-62
2022/06/28 08:11:39;;;;;;;8.20;3.35;;;22.10;93.50;;;;;;5149509;27;22407;-62
2022/06/28 08:14:05;;;;;;;10.13;3.45;;;21.90;93.30;;;;;;5149899;27;20108;-63
2022/06/28 08:16:31;;;;;;;8.57;2.72;;;21.70;93.00;;;;;;5149198;27;20066;-63
2022/06/28 08:18:57;;;;;;;7.40;2.65;;;21.30;92.90;;;;;;5150624;27;20054;-62
2022/06/28 08:21:23;;;;;;;7.82;2.83;;;21.40;92.50;;;;;;5156737;27;20526;-63
2022/06/28 08:23:48;;;;;;;8.43;3.35;;;21.60;92.10;;;;;;5154840;27;20118;-62
2022/06/28 08:26:14;;;;;;;7.28;3.15;;;21.70;90.60;;;;;;5153619;27;20034;-63
2022/06/28 08:28:39;;;;;;;5.30;2.00;;;21.20;90.80;;;;;;5149853;27;20038;-63
2022/06/28 08:31:05;;;;;;;3.70;2.00;;;21.10;90.90;;;;;;5153410;27;20043;-63
2022/06/28 08:33:30;;;;;;;4.93;1.88;;;21.50;90.60;;;;;;5142528;27;20053;-63
2022/06/28 08:35:56;;;;;;;7.32;1.98;;;22.10;90.30;;;;;;5148556;27;20114;-63
2022/06/28 08:38:21;;;;;;;6.78;1.80;;;22.30;90.00;;;;;;5157762;27;20039;-62
2022/06/28 08:40:47;;;;;;;6.50;1.80;;;22.80;88.50;;;;;;5153735;27;20066;-62
2022/06/28 08:43:13;;;;;;;6.07;2.42;;;22.70;86.70;;;;;;5153291;27;20114;-62
2022/06/28 08:45:38;;;;;;;6.95;1.90;;;22.30;84.90;;;;;;5146120;27;20084;-62
2022/06/28 08:48:30;;;;;;;3.90;1.63;;;22.30;83.60;;;;;;5133788;27;20045;-62
2022/06/28 08:50:59;;;;;;;5.45;1.40;;;23.10;72.60;;;;;;5155634;27;20037;-62
2022/06/28 08:53:27;;;;;;;7.28;1.83;;;23.80;75.90;;;;;;5148914;27;20049;-63
2022/06/28 08:55:53;;;;;;;6.22;2.00;;;24.40;78.40;;;;;;5135189;27;20123;-63
2022/06/28 08:58:19;;;;;;;5.43;2.25;;;24.80;75.10;;;;;;5131108;27;20053;-62
2022/06/28 09:00:46;;;;;;;5.88;2.00;;;24.60;73.90;;;;;;5126400;27;20035;-62
2022/06/28 09:03:11;;;;;;;5.43;2.35;;;23.90;73.20;;;;;;5117723;27;20049;-63
2022/06/28 09:05:37;;;;;;;4.13;1.60;;;23.30;74.40;;;;;;5126359;27;20035;-63
2022/06/28 09:08:03;;;;;;;6.05;1.88;;;23.90;74.70;;;;;;5132520;27;20039;-64
2022/06/28 09:10:29;;;;;;;5.45;1.83;;;24.40;73.70;;;;;;5125146;27;20028;-63
2022/06/28 09:13:24;;;;;;;7.75;1.83;;;25.10;71.20;;;;;;5131528;27;20035;-63
2022/06/28 09:15:57;;;;;;;4.95;1.50;;;25.00;57.10;;;;;;5108698;27;20039;-62
2022/06/28 09:18:26;;;;;;;7.70;1.70;;;24.70;58.30;;;;;;5120173;27;20578;-62
2022/06/28 09:20:55;;;;;;;2.83;1.20;;;24.20;59.10;;;;;;5118289;27;20126;-63
2022/06/28 09:23:33;;;;;;;2.85;1.30;;;24.40;59.60;;;;;;5117265;27;20035;-62
2022/06/28 09:26:21;;;;;;;4.45;1.95;;;25.00;60.60;;;;;;5133286;27;20027;-63
2022/06/28 09:28:49;;;;;;;4.57;1.33;;;25.30;59.60;;;;;;5117523;27;20039;-63
2022/06/28 09:31:18;;;;;;;5.50;1.90;;;25.30;57.10;;;;;;5131436;27;20039;-62
2022/06/28 09:33:46;;;;;;;2.35;1.20;;;26.50;55.30;;;;;;5130030;27;20045;-64
2022/06/28 09:36:17;;;;;;;5.05;1.10;;;26.60;55.30;;;;;;5132149;27;20077;-63
2022/06/28 09:38:43;;;;;;;3.40;1.30;;;27.20;53.90;;;;;;5124780;27;20031;-62
2022/06/28 09:41:23;;;;;;;4.20;1.40;;;27.20;52.60;;;;;;5134504;27;20039;-64
2022/06/28 09:44:03;;;;;;;3.65;1.25;;;27.20;49.30;;;;;;5130895;27;20039;-64
2022/06/28 09:46:30;;;;;;;3.28;1.05;;;26.90;49.80;;;;;;5114190;27;20046;-63
2022/06/28 09:49:01;;;;;;;4.18;1.45;;;27.30;50.30;;;;;;5130614;27;20079;-63
2022/06/28 09:51:29;;;;;;;4.78;1.45;;;28.20;46.50;;;;;;5131030;27;20118;-64
2022/06/28 09:54:03;;;;;;;4.72;1.33;;;28.60;47.70;;;;;;5140230;27;20047;-65
2022/06/28 09:56:36;;;;;;;3.53;1.15;;;29.20;46.90;;;;;;5154956;27;20080;-64
2022/06/28 09:59:02;;;;;;;5.43;1.17;;;29.20;46.70;;;;;;5151005;27;20038;-63
2022/06/28 10:01:29;;;;;;;4.30;1.10;;;28.50;45.50;;;;;;5149511;27;20026;-63
2022/06/28 10:03:55;;;;;;;5.15;1.45;;;28.70;46.10;;;;;;5151229;27;20774;-63
2022/06/28 10:06:21;;;;;;;4.28;1.35;;;29.20;45.50;;;;;;5154444;27;20049;-64
2022/06/28 10:08:48;;;;;;;4.95;1.65;;;28.90;44.10;;;;;;5150170;27;20038;-64
2022/06/28 10:11:15;;;;;;;3.58;1.08;;;29.10;45.30;;;;;;5152098;27;20371;-64
2022/06/28 10:16:36;;;;;;;5.88;1.10;;;30.20;44.80;;;;;;5151046;27;20042;-63
2022/06/28 10:19:03;;;;;;;3.08;1.10;;;30.00;41.50;;;;;;5131412;27;20046;-65
2022/06/28 10:21:51;;;;;;;5.07;1.15;;;30.30;42.60;;;;;;5152549;27;20042;-65
2022/06/28 10:24:17;;;;;;;5.82;1.52;;;30.20;42.50;;;;;;5149696;27;20553;-64
2022/06/28 10:26:45;;;;;;;5.30;1.30;;;30.40;42.80;;;;;;5151531;27;20113;-64
2022/06/28 10:29:11;;;;;;;3.08;1.08;;;30.20;42.40;;;;;;5149773;27;20051;-64
2022/06/28 10:31:42;;;;;;;3.85;1.40;;;29.90;42.90;;;;;;5131152;27;20098;-64
2022/06/28 10:34:12;;;;;;;4.47;1.20;;;28.90;43.20;;;;;;5133409;27;20035;-63
2022/06/28 10:36:56;;;;;;;4.82;1.05;;;27.00;45.20;;;;;;5117694;27;20042;-63
2022/06/28 10:39:32;;;;;;;2.75;1.10;;;27.00;47.30;;;;;;5149521;27;20087;-63
2022/06/28 10:41:58;;;;;;;3.17;1.30;;;27.70;45.90;;;;;;5119517;27;20053;-64
2022/06/28 10:44:29;;;;;;;3.80;1.25;;;28.20;44.80;;;;;;5148657;27;20046;-61
2022/06/28 10:47:06;;;;;;;3.60;1.05;;;27.40;44.40;;;;;;5149439;27;20123;-64
2022/06/28 10:49:50;;;;;;;6.40;1.38;;;28.40;47.00;;;;;;5144863;27;20043;-64
2022/06/28 10:52:32;;;;;;;3.88;1.00;;;28.90;44.90;;;;;;5144650;27;20416;-64
2022/06/28 10:54:58;;;;;;;4.72;1.02;;;29.70;44.10;;;;;;5141663;27;20059;-65
2022/06/28 10:57:34;;;;;;;4.35;1.02;;;30.60;42.20;;;;;;5137184;27;20051;-65
2022/06/28 11:00:06;;;;;;;3.70;1.50;;;31.20;40.80;;;;;;5114929;27;20078;-64
2022/06/28 11:02:49;;;;;;;2.70;1.10;;;31.40;39.50;;;;;;5145510;27;20041;-65
2022/06/28 11:05:16;;;;;;;5.53;1.33;;;30.40;40.70;;;;;;5150807;27;20039;-64
2022/06/28 11:08:00;;;;;;;3.97;1.30;;;28.90;42.00;;;;;;5151763;27;20086;-64
2022/06/28 11:10:27;;;;;;;5.07;1.10;;;28.20;43.00;;;;;;5145325;27;20039;-64
2022/06/28 11:12:53;;;;;;;5.70;1.35;;;27.40;45.70;;;;;;5154827;27;20435;-64
2022/06/28 11:15:28;;;;;;;4.90;1.30;;;26.70;45.90;;;;;;5147437;27;20035;-63
2022/06/28 11:17:53;;;;;;;3.63;1.23;;;25.80;46.00;;;;;;5155350;27;20041;-64
2022/06/28 11:20:28;;;;;;;5.97;1.63;;;25.70;48.30;;;;;;5150649;27;20053;-64
2022/06/28 11:22:54;;;;;;;5.10;1.20;;;25.70;48.70;;;;;;5148922;27;20047;-64
2022/06/28 11:25:24;;;;;;;4.05;1.33;;;25.80;47.60;;;;;;5137257;27;20092;-64
2022/06/28 11:27:53;;;;;;;4.40;1.15;;;25.40;47.40;;;;;;5151671;27;20083;-63
2022/06/28 11:30:20;;;;;;;3.15;1.20;;;25.30;47.90;;;;;;5151774;27;20049;-64
2022/06/28 11:32:50;;;;;;;3.97;1.02;;;25.30;47.30;;;;;;5149249;27;20065;-64
2022/06/28 11:35:18;;;;;;;3.85;1.17;;;24.80;47.90;;;;;;5147050;27;20066;-64
2022/06/28 11:37:55;;;;;;;2.95;1.20;;;24.70;47.80;;;;;;5153577;27;20087;-64
2022/06/28 11:40:49;;;;;;;3.78;1.08;;;24.30;48.40;;;;;;5137756;27;20043;-64
2022/06/28 11:43:18;;;;;;;2.85;0.90;;;24.00;49.00;;;;;;5149090;27;20417;-65
2022/06/28 11:45:49;;;;;;;2.42;1.00;;;24.30;49.00;;;;;;5154431;27;20033;-63
2022/06/28 11:48:29;;;;;;;4.22;1.10;;;24.50;49.00;;;;;;5146656;27;20526;-64
2022/06/28 11:50:59;;;;;;;2.35;0.90;;;24.60;47.50;;;;;;5153100;27;20074;-64
2022/06/28 11:53:27;;;;;;;3.35;0.93;;;24.20;47.80;;;;;;5144735;27;20379;-62
2022/06/28 11:55:55;;;;;;;2.90;0.95;;;24.40;47.30;;;;;;5155792;27;20517;-63
2022/06/28 11:58:25;;;;;;;3.97;1.13;;;24.80;47.40;;;;;;5156603;27;20049;-63
2022/06/28 12:01:24;;;;;;;2.83;0.85;;;25.00;46.80;;;;;;5155050;27;20074;-63
2022/06/28 12:03:50;;;;;;;2.72;0.80;;;25.00;44.50;;;;;;5107888;27;20090;-64
2022/06/28 12:06:24;;;;;;;3.70;1.02;;;25.10;44.30;;;;;;5150119;27;20466;-63
2022/06/28 12:09:16;;;;;;;3.78;1.20;;;25.20;44.50;;;;;;5153180;27;20617;-64
2022/06/28 12:11:52;;;;;;;2.05;0.80;;;25.60;45.40;;;;;;5136546;27;20039;-63
2022/06/28 12:14:28;;;;;;;4.75;0.80;;;25.70;44.60;;;;;;5148184;27;20134;-65
2022/06/28 12:16:54;;;;;;;3.17;0.90;;;26.50;44.40;;;;;;5154965;27;20149;-63
2022/06/28 12:19:22;;;;;;;4.57;0.90;;;28.30;43.20;;;;;;5154802;27;20118;-63
2022/06/28 12:22:04;;;;;;;2.72;1.27;;;28.90;40.70;;;;;;5163426;27;20042;-66
2022/06/28 12:24:46;;;;;;;2.83;1.00;;;28.90;39.90;;;;;;5160061;27;20030;-64
2022/06/28 12:27:24;;;;;;;2.15;0.80;;;30.10;38.10;;;;;;5155269;27;20031;-64
2022/06/28 12:29:51;;;;;;;3.92;1.20;;;31.00;38.30;;;;;;5150808;27;20427;-62
2022/06/28 12:32:18;;;;;;;3.72;0.90;;;30.60;35.50;;;;;;5163333;27;20073;-64
2022/06/28 12:34:43;;;;;;;2.10;1.00;;;31.50;35.80;;;;;;5150427;27;20389;-64
2022/06/28 12:37:10;;;;;;;4.68;1.00;;;32.40;35.60;;;;;;5146604;27;20056;-65
2022/06/28 12:39:35;;;;;;;2.80;1.20;;;33.00;35.50;;;;;;5154389;27;20091;-63
2022/06/28 12:42:01;;;;;;;2.33;0.80;;;34.80;34.30;;;;;;5143762;27;20063;-62
2022/06/28 12:44:26;;;;;;;4.78;1.10;;;34.30;33.10;;;;;;5123801;27;20570;-63
2022/06/28 12:46:52;;;;;;;3.55;0.93;;;31.90;33.80;;;;;;5150269;27;20033;-64
2022/06/28 12:49:19;;;;;;;2.88;0.95;;;30.10;35.80;;;;;;5154848;27;20066;-63
2022/06/28 12:51:45;;;;;;;2.42;0.70;;;28.90;37.70;;;;;;5152404;27;20054;-64